Flight Track Log - Related Links

Times and Time Zones

All times are in EDT time to prevent confusion due to time zone crossing. See the DAL95 flight status page for this flight to view local times or setup timezone preferences in your user account.

Time Position Orientation Groundspeed Altitude Reporting Facility
EDT Latitude Longitude Course Direction KTS MPH feet Rate Location/Type
Sun 04:33:00 AM 41.3429 1.9384 294° West  Level FlightAware Approximate
Sun 04:34:00 AM 41.3946 1.7996 294° West  Level FlightAware Approximate
Sun 04:35:00 AM 41.4475 1.6641 301° West  Level FlightAware Approximate
Sun 04:36:00 AM 41.5014 1.5292 294° West  Level FlightAware Approximate
Sun 04:37:00 AM 41.5480 1.3892 294° West  Level FlightAware Approximate
Sun 04:38:00 AM 41.6020 1.2539 298° West  Level FlightAware Approximate
Sun 04:39:00 AM 41.6562 1.1186 298° West  Level FlightAware Approximate
Sun 04:40:00 AM 41.7102 0.9830 298° West  Level FlightAware Approximate
Sun 04:41:00 AM 41.7557 0.8420 293° West  Level FlightAware Approximate
Sun 04:42:00 AM 41.8000 0.7000 293° West  Level FlightAware Approximate
Sun 04:43:00 AM 41.8610 0.5699 296° West  Level FlightAware Approximate
Sun 04:44:00 AM 41.9113 0.4314 296° West  Level FlightAware Approximate
Sun 04:45:00 AM 41.9605 0.2920 295° West  Level FlightAware Approximate
Sun 04:46:00 AM 42.0093 0.1523 295° West  Level FlightAware Approximate
Sun 04:47:00 AM 42.0571 0.0120 294° West  Level FlightAware Approximate
Sun 04:48:00 AM 42.1064 -0.1277 296° West  Level FlightAware Approximate
Sun 04:48:23 AM 41.2600 2.0490 296° West 162 186 1,400  Level FlightAware ADS-B
Sun 04:48:53 AM 41.2370 2.0520 174° South 162 186 2,300 1,600 Climbing FlightAware ADS-B
Sun 04:49:08 AM 41.2280 2.0460 207° Southwest 164 189 2,600 1,440 Climbing FlightAware ADS-B
Sun 04:49:18 AM 41.2210 2.0400 213° Southwest 166 191 2,900 900 Climbing FlightAware ADS-B
Sun 04:49:48 AM 41.2000 2.0220 213° Southwest 200 230 3,200 667 Climbing FlightAware ADS-B
Sun 04:50:03 AM 41.1870 2.0060 223° Southwest 224 258 3,400 800 Climbing FlightAware ADS-B
Sun 04:50:18 AM 41.1830 1.9860 255° West 248 285 3,600 1,500 Climbing FlightAware ADS-B
Sun 04:50:43 AM 41.1890 1.9490 282° West 265 305 4,400 1,964 Climbing FlightAware ADS-B
Sun 04:51:13 AM 41.2040 1.9080 296° West 281 323 5,400 2,700 Climbing FlightAware ADS-B
Sun 04:51:43 AM 41.2330 1.8630 311° West 278 320 7,100 3,055 Climbing FlightAware ADS-B
Sun 04:52:08 AM 41.2550 1.8340 315° West 278 320 8,200 2,550 Climbing FlightAware ADS-B
Sun 04:52:23 AM 41.2700 1.8140 315° West 284 327 8,800 1,950 Climbing FlightAware ADS-B
Sun 04:52:48 AM 41.2920 1.7850 315° West 294 338 9,500 1,200 Climbing FlightAware ADS-B
Sun 04:53:48 AM 41.3480 1.7110 315° West 297 342 10,500 1,500 Climbing FlightAware ADS-B
Sun 04:54:28 AM 41.3990 1.6400 314° West 361 415 12,000 2,175 Climbing FlightAware ADS-B
Sun 04:55:08 AM 41.4340 1.5640 302° West 367 422 13,400 1,976 Climbing FlightAware ADS-B
Sun 04:55:53 AM 41.4760 1.4710 301° West 380 437 14,800 1,906 Climbing FlightAware ADS-B
Sun 04:56:33 AM 41.5130 1.3930 302° West 384 442 16,100 1,835 Climbing FlightAware ADS-B
Sun 04:57:18 AM 41.5550 1.3040 302° West 392 451 17,400 988 Climbing FlightAware ADS-B
Sun 04:57:58 AM 41.5880 1.2300 301° West 392 451 17,500 1,129 Climbing FlightAware ADS-B
Sun 04:58:43 AM 41.6300 1.1390 302° West 399 459 19,000 1,059 Climbing FlightAware ADS-B
Sun 04:59:23 AM 41.6630 1.0670 302° West 399 459 19,000  Level FlightAware ADS-B
Sun 05:00:03 AM 41.6950 0.9950 301° West 399 459 19,000 2,475 Level FlightAware ADS-B
Sun 05:00:43 AM 41.7570 0.8650 303° West 429 494 22,300 3,106 Climbing FlightAware ADS-B
Sun 05:01:28 AM 41.8080 0.7540 302° West 436 502 23,400 1,200 Climbing FlightAware ADS-B
Sun 05:02:08 AM 41.8500 0.6620 302° West 446 513 24,000 1,059 Climbing FlightAware ADS-B
Sun 05:02:53 AM 41.9000 0.5530 302° West 452 520 24,900 1,200 Climbing FlightAware ADS-B
Sun 05:03:33 AM 41.9440 0.4540 301° West 454 522 25,700 1,129 Climbing FlightAware ADS-B
Sun 05:04:18 AM 41.9890 0.3510 300° West 458 527 26,500 1,200 Climbing FlightAware ADS-B
Sun 05:04:58 AM 42.0290 0.2430 297° West 456 525 27,400 1,059 Climbing FlightAware ADS-B
Sun 05:05:43 AM 42.0710 0.1320 297° West 464 534 28,000 1,412 Climbing FlightAware ADS-B
Sun 05:06:23 AM 42.1110 0.0240 297° West 451 519 29,400 1,800 Climbing FlightAware ADS-B
Sun 05:07:03 AM 42.1460 -0.0690 297° West 442 509 30,400 1,059 Climbing FlightAware ADS-B
Sun 05:07:48 AM 42.1880 -0.1840 296° West 447 514 30,900 424 Climbing FlightAware ADS-B
Sun 05:08:28 AM 42.2240 -0.2820 296° West 460 529 31,000 71 Climbing FlightAware ADS-B
Sun 05:09:13 AM 42.2690 -0.4050 296° West 477 549 31,000  Level FlightAware ADS-B
Sun 05:09:53 AM 42.3090 -0.5140 296° West 485 558 31,000  Level FlightAware ADS-B
Sun 05:10:33 AM 42.3470 -0.6180 296° West 485 558 31,000  Level FlightAware ADS-B
Sun 05:11:18 AM 42.3910 -0.7390 296° West 485 558 31,000  Level FlightAware ADS-B
Sun 05:11:58 AM 42.4320 -0.8520 296° West 484 557 31,000  Level FlightAware ADS-B
Sun 05:12:43 AM 42.4760 -0.9750 296° West 485 558 31,000 353 Level FlightAware ADS-B
Sun 05:13:23 AM 42.5160 -1.0850 296° West 484 557 31,500 825 Climbing FlightAware ADS-B
Sun 05:14:03 AM 42.5550 -1.1940 296° West 483 556 32,100 776 Climbing FlightAware ADS-B
Sun 05:14:48 AM 42.5930 -1.3030 295° West 483 556 32,600 706 Climbing FlightAware ADS-B
Sun 05:15:28 AM 42.6350 -1.4190 296° West 485 558 33,100 776 Climbing FlightAware ADS-B
Sun 05:16:13 AM 42.6740 -1.5320 295° West 483 556 33,700 918 Climbing FlightAware ADS-B
Sun 05:16:53 AM 42.7140 -1.6430 296° West 477 549 34,400 900 Climbing FlightAware ADS-B
Sun 05:17:33 AM 42.7550 -1.7500 298° West 477 549 34,900 424 Climbing FlightAware ADS-B
Sun 05:18:18 AM 42.8150 -1.8760 303° West 484 557 35,000 60 Climbing FlightAware ADS-B
Sun 05:19:13 AM 42.8780 -2.0080 303° West 483 556 35,000  Level FlightAware ADS-B
Sun 05:19:58 AM 42.9300 -2.1190 303° West 476 548 35,000  Level FlightAware ADS-B
Sun 05:20:38 AM 42.9780 -2.2230 302° West 475 547 35,000  Level FlightAware ADS-B
Sun 05:21:13 AM 43.0180 -2.3090 302° West 482 555 35,000  Level FlightAware ADS-B
Sun 05:21:58 AM 43.0710 -2.4260 302° West 483 556 35,000  Level FlightAware ADS-B
Sun 05:22:38 AM 43.1210 -2.5330 303° West 485 558 35,000  Level FlightAware ADS-B
Sun 05:23:23 AM 43.1740 -2.6480 302° West 480 552 35,000  Level FlightAware ADS-B
Sun 05:24:08 AM 43.2250 -2.7610 302° West 478 550 35,000  Level FlightAware ADS-B
Sun 05:24:43 AM 43.2630 -2.8440 302° West 480 552 35,000  Level FlightAware ADS-B
Sun 05:25:33 AM 43.3260 -2.9800 303° West 489 563 35,000  Level FlightAware ADS-B
Sun 05:26:03 AM 43.3590 -3.0540 302° West 484 557 35,000  Level FlightAware ADS-B
Sun 05:26:53 AM 43.4280 -3.1820 307° West 489 563 35,000  Level FlightAware ADS-B
Sun 05:27:38 AM 43.4840 -3.2820 308° West 488 562 35,000  Level FlightAware ADS-B
Sun 05:28:18 AM 43.5490 -3.3980 308° West 487 560 35,000  Level FlightAware ADS-B
Sun 05:28:53 AM 43.5820 -3.4920 296° West 470 541 35,000  Level FlightAware ADS-B
Sun 05:29:38 AM 43.5880 -3.6180 274° West 460 529 35,000  Level FlightAware ADS-B
Sun 05:30:38 AM 43.5880 -3.7920 270° West 456 525 35,000  Level FlightAware ADS-B
Sun 05:31:18 AM 43.5880 -3.8910 270° West 456 525 35,000  Level FlightAware ADS-B
Sun 05:31:58 AM 43.5880 -3.9900 270° West 456 525 35,000  Level FlightAware ADS-B
Sun 05:32:38 AM 43.5880 -4.0890 270° West 456 525 35,000  Level FlightAware ADS-B
Sun 05:33:28 AM 43.5880 -4.2120 270° West 456 525 35,000  Level FlightAware ADS-B
Sun 05:34:08 AM 43.5830 -4.4000 268° West 442 509 35,000  Level FlightAware ADS-B
Sun 05:34:53 AM 43.5820 -4.5260 269° West 442 509 35,000  Level FlightAware ADS-B
Sun 05:35:33 AM 43.5810 -4.6390 269° West 442 509 35,000  Level FlightAware ADS-B
Sun 05:36:13 AM 43.5790 -4.7500 269° West 440 506 35,000  Level FlightAware ADS-B
Sun 05:36:58 AM 43.5780 -4.8760 269° West 436 502 35,000  Level FlightAware ADS-B
Sun 05:37:28 AM 43.5770 -4.9590 269° West 436 502 35,000  Level FlightAware ADS-B
Sun 05:38:18 AM 43.5750 -5.1020 269° West 438 504 35,000  Level FlightAware ADS-B
Sun 05:39:03 AM 43.5730 -5.2280 269° West 437 503 35,000  Level FlightAware ADS-B
Sun 05:39:43 AM 43.5710 -5.3410 269° West 437 503 35,000  Level FlightAware ADS-B
Sun 05:40:28 AM 43.5690 -5.4650 269° West 439 505 35,000  Level FlightAware ADS-B
Sun 05:41:08 AM 43.5670 -5.5690 269° West 439 505 35,000  Level FlightAware ADS-B
Sun 05:41:53 AM 43.5640 -5.7030 268° West 437 503 35,000  Level FlightAware ADS-B
Sun 05:42:23 AM 43.5630 -5.7770 269° West 439 505 35,000  Level FlightAware ADS-B
Sun 05:43:03 AM 43.5730 -5.8980 277° West 447 514 35,000  Level FlightAware ADS-B
Sun 05:43:43 AM 43.5920 -6.0100 283° West 457 526 35,000  Level FlightAware ADS-B
Sun 05:44:33 AM 43.6330 -6.1460 293° West 466 536 35,000  Level FlightAware ADS-B
Sun 05:45:33 AM 43.6860 -6.3030 295° West 461 531 35,000 253 Level FlightAware ADS-B
Sun 05:46:08 AM 43.7130 -6.3950 292° West 457 526 35,400 706 Climbing FlightAware ADS-B
Sun 05:46:58 AM 43.7520 -6.5240 293° West 456 525 36,000 176 Climbing FlightAware ADS-B
Sun 05:49:00 AM 43.8307 -6.8107 291° West  Level Estimated
Sun 05:49:33 AM 43.8790 -6.9460 291° West 457 526 36,000  Level FlightAware ADS-B
Sun 05:50:13 AM 43.9120 -7.0550 293° West 458 527 36,000  Level FlightAware ADS-B
Sun 05:50:58 AM 43.9480 -7.1750 293° West 458 527 36,000  Level FlightAware ADS-B
Sun 05:51:38 AM 43.9810 -7.2860 292° West 457 526 36,000  Level FlightAware ADS-B
Sun 05:52:23 AM 44.0160 -7.4070 292° West 454 522 36,000  Level FlightAware ADS-B
Sun 05:53:03 AM 44.0490 -7.5190 292° West 454 522 36,000  Level FlightAware ADS-B
Sun 05:53:48 AM 44.0840 -7.6390 292° West 454 522 36,000  Level FlightAware ADS-B
Sun 05:54:28 AM 44.1160 -7.7470 292° West 454 522 36,000  Level FlightAware ADS-B
Sun 05:55:13 AM 44.1510 -7.8700 292° West 454 522 36,000  Level FlightAware ADS-B
Sun 05:55:53 AM 44.1820 -7.9790 292° West 452 520 36,000  Level FlightAware ADS-B
Sun 05:56:33 AM 44.2140 -8.0870 292° West 446 513 36,000  Level FlightAware ADS-B
Sun 05:57:18 AM 44.2480 -8.2080 291° West 444 511 36,000  Level FlightAware ADS-B
Sun 05:57:58 AM 44.2790 -8.3140 292° West 447 514 36,000  Level FlightAware ADS-B
Sun 05:58:43 AM 44.3130 -8.4340 292° West 450 518 36,000  Level FlightAware ADS-B
Sun 05:59:23 AM 44.3440 -8.5460 291° West 452 520 36,000  Level FlightAware ADS-B
Sun 06:00:03 AM 44.3750 -8.6540 292° West 454 522 36,000  Level FlightAware ADS-B
Sun 06:00:48 AM 44.4080 -8.7730 291° West 455 524 36,000  Level FlightAware ADS-B
Sun 06:01:23 AM 44.4360 -8.8730 291° West 453 521 36,000  Level FlightAware ADS-B
Sun 06:03:00 AM 44.4938 -9.1060 289° West  Level Estimated
Sun 06:04:00 AM 44.5292 -9.2504 289° West  Level Estimated
Sun 06:05:00 AM 44.5645 -9.3949 289° West  Level Estimated
Sun 06:06:00 AM 44.5997 -9.5396 289° West  Level Estimated
Sun 06:06:18 AM 44.6530 -9.6700 289° West 443 510 36,000  Level FlightAware ADS-B
Sun 06:06:58 AM 44.6820 -9.7770 291° West 440 506 36,000  Level FlightAware ADS-B
Sun 06:07:38 AM 44.7120 -9.8900 291° West 441 507 36,000  Level FlightAware ADS-B
Sun 06:08:23 AM 44.7440 -10.0130 290° West 442 509 36,000  Level FlightAware ADS-B
Sun 06:09:03 AM 44.7730 -10.1200 291° West 444 511 36,000  Level FlightAware ADS-B
Sun 06:10:43 AM 44.8440 -10.3910 290° West 446 513 36,000  Level FlightAware ADS-B
Sun 06:11:23 AM 44.8710 -10.4940 290° West 443 510 36,000  Level FlightAware ADS-B
Sun 06:12:03 AM 44.9000 -10.6100 289° West 442 509 36,000  Level FlightAware ADS-B
Sun 06:12:48 AM 44.9310 -10.7290 290° West 442 509 36,000  Level FlightAware ADS-B
Sun 06:13:28 AM 44.9590 -10.8390 290° West 442 509 36,000  Level FlightAware ADS-B
Sun 06:14:13 AM 44.9890 -10.9460 292° West 448 516 36,000  Level FlightAware ADS-B
Sun 06:14:48 AM 45.0270 -11.0480 298° West 463 533 36,000  Level FlightAware ADS-B
Sun 06:17:00 AM 45.0991 -11.3714 288° West  Level Estimated
Sun 06:17:13 AM 45.2300 -11.3960 288° West 475 547 36,000  Level FlightAware ADS-B
Sun 06:17:58 AM 45.2900 -11.5050 308° West 467 537 36,000  Level FlightAware ADS-B
Sun 06:18:38 AM 45.3420 -11.6050 307° West 467 537 36,000  Level FlightAware ADS-B
Sun 06:19:13 AM 45.3870 -11.6910 307° West 465 535 36,000  Level FlightAware ADS-B
Sun 06:20:03 AM 45.4520 -11.8150 307° West 466 536 36,000  Level FlightAware ADS-B
Sun 06:20:43 AM 45.5040 -11.9160 306° West 467 537 36,000  Level FlightAware ADS-B
Sun 06:21:28 AM 45.5550 -12.0140 307° West 469 540 36,000  Level FlightAware ADS-B
Sun 06:22:08 AM 45.6150 -12.1300 307° West 470 541 36,000  Level FlightAware ADS-B
Sun 06:23:03 AM 45.6860 -12.2690 306° West 469 540 36,000  Level FlightAware ADS-B
Sun 06:23:58 AM 45.7450 -12.3840 306° West 467 537 36,000  Level FlightAware ADS-B
Sun 06:24:38 AM 45.7880 -12.4700 306° West 467 537 36,000  Level FlightAware ADS-B
Sun 06:25:18 AM 45.8320 -12.5550 307° West 467 537 36,000  Level FlightAware ADS-B
Sun 06:26:08 AM 45.8860 -12.6620 306° West 467 537 36,000  Level FlightAware ADS-B
Sun 06:26:48 AM 45.9290 -12.7470 306° West 467 537 36,000  Level FlightAware ADS-B
Sun 06:27:28 AM 45.9720 -12.8330 306° West 467 537 36,000  Level FlightAware ADS-B
Sun 06:28:08 AM 46.0150 -12.9180 306° West 467 537 36,000  Level FlightAware ADS-B
Sun 06:28:48 AM 46.0580 -13.0040 306° West 467 537 36,000  Level FlightAware ADS-B
Sun 06:29:28 AM 46.1010 -13.0890 306° West 467 537 36,000  Level FlightAware ADS-B
Sun 06:30:18 AM 46.1550 -13.1970 306° West 467 537 36,000  Level FlightAware ADS-B
Sun 06:30:58 AM 46.1990 -13.2820 307° West 467 537 36,000  Level FlightAware ADS-B
Sun 06:31:38 AM 46.2420 -13.3680 306° West 467 537 36,000  Level FlightAware ADS-B
Sun 06:32:18 AM 46.2850 -13.4540 306° West 467 537 36,000  Level FlightAware ADS-B
Sun 06:32:58 AM 46.3280 -13.5400 306° West 467 537 36,000  Level FlightAware ADS-B
Sun 06:35:00 AM 46.3851 -13.8499 285° West  Level Estimated
Sun 06:36:00 AM 46.4129 -14.0026 285° West  Level Estimated
Sun 06:37:00 AM 46.4405 -14.1554 285° West  Level Estimated
Sun 06:38:00 AM 46.4679 -14.3084 285° West  Level Estimated
Sun 06:39:00 AM 46.4950 -14.4615 285° West  Level Estimated
Sun 06:40:00 AM 46.5220 -14.6148 284° West  Level Estimated
Sun 06:41:00 AM 46.5488 -14.7682 284° West  Level Estimated
Sun 06:42:00 AM 46.5753 -14.9218 284° West  Level Estimated
Sun 06:43:00 AM 46.6017 -15.0755 284° West  Level Estimated
Sun 06:44:00 AM 46.6278 -15.2294 284° West  Level Estimated
Sun 06:45:00 AM 46.6538 -15.3834 284° West  Level Estimated
Sun 06:46:00 AM 46.6795 -15.5376 284° West  Level Estimated
Sun 06:47:00 AM 46.7050 -15.6919 284° West  Level Estimated
Sun 06:48:00 AM 46.7304 -15.8464 284° West  Level Estimated
Sun 06:49:00 AM 46.7555 -16.0010 283° West  Level Estimated
Sun 06:50:00 AM 46.7804 -16.1558 283° West  Level Estimated
Sun 06:51:00 AM 46.8051 -16.3107 283° West  Level Estimated
Sun 06:52:00 AM 46.8296 -16.4657 283° West  Level Estimated
Sun 06:53:00 AM 46.8538 -16.6209 283° West  Level Estimated
Sun 06:54:00 AM 46.8779 -16.7762 283° West  Level Estimated
Sun 06:55:00 AM 46.9018 -16.9317 283° West  Level Estimated
Sun 06:56:00 AM 46.9254 -17.0873 283° West  Level Estimated
Sun 06:57:00 AM 46.9488 -17.2430 282° West  Level Estimated
Sun 06:58:00 AM 46.9721 -17.3989 282° West  Level Estimated
Sun 06:59:00 AM 46.9951 -17.5549 282° West  Level Estimated
Sun 07:00:00 AM 47.0179 -17.7110 282° West  Level Estimated
Sun 07:01:00 AM 47.0405 -17.8673 282° West  Level Estimated
Sun 07:02:00 AM 47.0628 -18.0237 282° West  Level Estimated
Sun 07:03:00 AM 47.0850 -18.1802 282° West  Level Estimated
Sun 07:04:00 AM 47.1069 -18.3369 282° West  Level Estimated
Sun 07:05:00 AM 47.1287 -18.4937 282° West  Level Estimated
Sun 07:06:00 AM 47.1502 -18.6506 281° West  Level Estimated
Sun 07:07:00 AM 47.1715 -18.8076 281° West  Level Estimated
Sun 07:08:00 AM 47.1926 -18.9648 281° West  Level Estimated
Sun 07:09:00 AM 47.2146 -19.1305 281° West  Level Estimated
Sun 07:10:00 AM 47.2363 -19.2963 281° West  Level Estimated
Sun 07:11:00 AM 47.2578 -19.4622 281° West  Level Estimated
Sun 07:12:00 AM 47.2791 -19.6283 281° West  Level Estimated
Sun 07:13:00 AM 47.3001 -19.7945 281° West  Level Estimated
Sun 07:13:00 AM 49.0000 -20.0000 299° West 451 519 36,000  Level ETMS Enhanced Traffic Management System
Sun 07:14:00 AM 47.3209 -19.9609 281° West  Level Estimated
Sun 07:15:00 AM 47.3414 -20.1273 280° West  Level Estimated
Sun 07:16:00 AM 47.3617 -20.2940 280° West  Level Estimated
Sun 07:17:00 AM 47.3818 -20.4607 280° West  Level Estimated
Sun 07:18:00 AM 47.4016 -20.6276 280° West  Level Estimated
Sun 07:19:00 AM 49.3611 -21.0102 298° West 451 519 36,000  Level FlightAware Transoceanic
Sun 07:20:00 AM 49.4205 -21.1800 298° West 451 519 36,000  Level FlightAware Transoceanic
Sun 07:21:00 AM 49.4795 -21.3503 298° West 451 519 36,000  Level FlightAware Transoceanic
Sun 07:22:00 AM 49.5384 -21.5209 298° West 451 519 36,000  Level FlightAware Transoceanic
Sun 07:23:00 AM 49.5970 -21.6919 298° West 451 519 36,000  Level FlightAware Transoceanic
Sun 07:24:00 AM 49.6553 -21.8634 298° West 451 519 36,000  Level FlightAware Transoceanic
Sun 07:25:00 AM 49.7134 -22.0352 298° West 451 519 36,000  Level FlightAware Transoceanic
Sun 07:26:00 AM 49.7712 -22.2075 297° West 451 519 36,000  Level FlightAware Transoceanic
Sun 07:27:00 AM 49.8287 -22.3802 297° West 451 519 36,000  Level FlightAware Transoceanic
Sun 07:28:00 AM 49.8860 -22.5533 297° West 451 519 36,000  Level FlightAware Transoceanic
Sun 07:29:00 AM 49.9431 -22.7268 297° West 451 519 36,000  Level FlightAware Transoceanic
Sun 07:30:00 AM 49.9999 -22.9007 297° West 451 519 36,000  Level FlightAware Transoceanic
Sun 07:31:00 AM 50.0564 -23.0750 297° West 451 519 36,000  Level FlightAware Transoceanic
Sun 07:32:00 AM 50.1127 -23.2497 297° West 451 519 36,000  Level FlightAware Transoceanic
Sun 07:33:00 AM 50.1687 -23.4249 296° West 451 519 36,000  Level FlightAware Transoceanic
Sun 07:34:00 AM 50.2244 -23.6004 296° West 451 519 36,000  Level FlightAware Transoceanic
Sun 07:35:00 AM 50.2799 -23.7764 296° West 451 519 36,000  Level FlightAware Transoceanic
Sun 07:36:00 AM 50.3351 -23.9528 296° West 451 519 36,000  Level FlightAware Transoceanic
Sun 07:37:00 AM 50.3900 -24.1296 296° West 451 519 36,000  Level FlightAware Transoceanic
Sun 07:38:00 AM 50.4447 -24.3067 296° West 451 519 36,000  Level FlightAware Transoceanic
Sun 07:39:00 AM 50.4991 -24.4843 296° West 451 519 36,000  Level FlightAware Transoceanic
Sun 07:40:00 AM 50.5532 -24.6623 295° West 451 519 36,000  Level FlightAware Transoceanic
Sun 07:41:00 AM 50.6071 -24.8408 295° West 451 519 36,000  Level FlightAware Transoceanic
Sun 07:42:00 AM 50.6606 -25.0196 295° West 451 519 36,000  Level FlightAware Transoceanic
Sun 07:43:00 AM 50.7140 -25.1988 295° West 451 519 36,000  Level FlightAware Transoceanic
Sun 07:44:00 AM 50.7670 -25.3785 295° West 451 519 36,000  Level FlightAware Transoceanic
Sun 07:45:00 AM 50.8198 -25.5585 295° West 451 519 36,000  Level FlightAware Transoceanic
Sun 07:46:00 AM 50.8722 -25.7390 295° West 451 519 36,000  Level FlightAware Transoceanic
Sun 07:47:00 AM 50.9244 -25.9198 295° West 451 519 36,000  Level FlightAware Transoceanic
Sun 07:48:00 AM 50.9764 -26.1011 294° West 451 519 36,000  Level FlightAware Transoceanic
Sun 07:49:00 AM 51.0280 -26.2827 294° West 451 519 36,000  Level FlightAware Transoceanic
Sun 07:50:00 AM 51.0793 -26.4648 294° West 451 519 36,000  Level FlightAware Transoceanic
Sun 07:51:00 AM 51.1304 -26.6473 294° West 451 519 36,000  Level FlightAware Transoceanic
Sun 07:52:00 AM 51.1812 -26.8302 294° West 451 519 36,000  Level FlightAware Transoceanic
Sun 07:53:00 AM 51.2317 -27.0135 294° West 451 519 36,000  Level FlightAware Transoceanic
Sun 07:54:00 AM 51.2819 -27.1971 294° West 451 519 36,000  Level FlightAware Transoceanic
Sun 07:55:00 AM 51.3319 -27.3812 293° West 451 519 36,000  Level FlightAware Transoceanic
Sun 07:56:00 AM 51.3815 -27.5657 293° West 451 519 36,000  Level FlightAware Transoceanic
Sun 07:57:00 AM 51.4309 -27.7506 293° West 451 519 36,000  Level FlightAware Transoceanic
Sun 07:58:00 AM 51.4799 -27.9359 293° West 451 519 36,000  Level FlightAware Transoceanic
Sun 07:59:00 AM 51.5287 -28.1215 293° West 451 519 36,000  Level FlightAware Transoceanic
Sun 08:00:00 AM 51.5772 -28.3076 293° West 451 519 36,000  Level FlightAware Transoceanic
Sun 08:01:00 AM 51.6253 -28.4941 293° West 451 519 36,000  Level FlightAware Transoceanic
Sun 08:02:00 AM 51.6732 -28.6810 292° West 451 519 36,000  Level FlightAware Transoceanic
Sun 08:03:00 AM 51.7208 -28.8682 292° West 451 519 36,000  Level FlightAware Transoceanic
Sun 08:04:00 AM 51.7681 -29.0559 292° West 451 519 36,000  Level FlightAware Transoceanic
Sun 08:05:00 AM 51.8151 -29.2439 292° West 451 519 36,000  Level FlightAware Transoceanic
Sun 08:06:00 AM 51.8618 -29.4324 292° West 451 519 36,000  Level FlightAware Transoceanic
Sun 08:07:00 AM 51.9081 -29.6212 292° West 451 519 36,000  Level FlightAware Transoceanic
Sun 08:08:00 AM 51.9542 -29.8104 291° West 451 519 36,000  Level FlightAware Transoceanic
Sun 08:09:00 AM 51.9951 -29.9798 291° West  Level FlightAware Approximate
Sun 08:10:00 AM 52.0358 -30.1494 291° West  Level FlightAware Approximate
Sun 08:11:00 AM 52.0189 -30.1352 283° West  Level FlightAware Approximate
Sun 08:12:00 AM 52.0435 -30.3129 283° West  Level FlightAware Approximate
Sun 08:13:00 AM 52.0679 -30.4908 283° West  Level FlightAware Approximate
Sun 08:14:00 AM 52.0920 -30.6689 282° West  Level FlightAware Approximate
Sun 08:15:00 AM 52.1156 -30.8459 282° West  Level FlightAware Approximate
Sun 08:16:00 AM 52.1389 -31.0229 282° West  Level FlightAware Approximate
Sun 08:17:00 AM 52.1620 -31.2002 282° West  Level FlightAware Approximate
Sun 08:18:00 AM 52.1849 -31.3777 282° West  Level FlightAware Approximate
Sun 08:19:00 AM 52.2074 -31.5553 282° West  Level FlightAware Approximate
Sun 08:20:00 AM 52.2297 -31.7332 282° West  Level FlightAware Approximate
Sun 08:21:00 AM 52.2518 -31.9111 281° West  Level FlightAware Approximate
Sun 08:22:00 AM 52.2735 -32.0893 281° West  Level FlightAware Approximate
Sun 08:23:00 AM 52.2950 -32.2677 281° West  Level FlightAware Approximate
Sun 08:24:00 AM 52.3162 -32.4462 281° West  Level FlightAware Approximate
Sun 08:25:00 AM 52.3382 -32.6245 281° West  Level FlightAware Approximate
Sun 08:26:00 AM 52.3599 -32.8031 281° West  Level FlightAware Approximate
Sun 08:27:00 AM 52.3814 -32.9818 281° West  Level FlightAware Approximate
Sun 08:28:00 AM 52.4026 -33.1607 281° West  Level FlightAware Approximate
Sun 08:29:00 AM 52.4235 -33.3397 281° West  Level FlightAware Approximate
Sun 08:30:00 AM 52.4441 -33.5189 281° West  Level FlightAware Approximate
Sun 08:31:00 AM 52.4645 -33.6983 281° West  Level FlightAware Approximate
Sun 08:32:00 AM 52.4846 -33.8779 280° West  Level FlightAware Approximate
Sun 08:33:00 AM 52.5045 -34.0576 280° West  Level FlightAware Approximate
Sun 08:34:00 AM 52.5240 -34.2375 280° West  Level FlightAware Approximate
Sun 08:35:00 AM 52.5433 -34.4175 280° West  Level FlightAware Approximate
Sun 08:36:00 AM 52.5623 -34.5977 280° West  Level FlightAware Approximate
Sun 08:37:00 AM 52.5811 -34.7780 280° West  Level FlightAware Approximate
Sun 08:38:00 AM 52.5995 -34.9585 280° West  Level FlightAware Approximate
Sun 08:39:00 AM 52.6177 -35.1392 279° West  Level FlightAware Approximate
Sun 08:40:00 AM 52.6357 -35.3200 279° West  Level FlightAware Approximate
Sun 08:41:00 AM 52.6533 -35.5009 279° West  Level FlightAware Approximate
Sun 08:42:00 AM 52.6707 -35.6820 279° West  Level FlightAware Approximate
Sun 08:43:00 AM 52.6878 -35.8633 279° West  Level FlightAware Approximate
Sun 08:44:00 AM 52.7046 -36.0446 279° West  Level FlightAware Approximate
Sun 08:45:00 AM 52.7211 -36.2262 279° West  Level FlightAware Approximate
Sun 08:46:00 AM 52.7374 -36.4078 278° West  Level FlightAware Approximate
Sun 08:47:00 AM 52.7533 -36.5896 278° West  Level FlightAware Approximate
Sun 08:48:00 AM 52.7690 -36.7715 278° West  Level FlightAware Approximate
Sun 08:49:00 AM 52.7845 -36.9536 278° West  Level FlightAware Approximate
Sun 08:50:00 AM 52.7996 -37.1357 278° West  Level FlightAware Approximate
Sun 08:51:00 AM 52.8145 -37.3180 278° West  Level FlightAware Approximate
Sun 08:52:00 AM 52.8291 -37.5005 278° West  Level FlightAware Approximate
Sun 08:53:00 AM 52.8434 -37.6830 277° West  Level FlightAware Approximate
Sun 08:54:00 AM 52.8574 -37.8657 277° West  Level FlightAware Approximate
Sun 08:55:00 AM 52.8712 -38.0485 277° West  Level FlightAware Approximate
Sun 08:56:00 AM 52.8846 -38.2314 277° West  Level FlightAware Approximate
Sun 08:57:00 AM 52.8978 -38.4144 277° West  Level FlightAware Approximate
Sun 08:58:00 AM 52.9107 -38.5975 277° West  Level FlightAware Approximate
Sun 08:59:00 AM 52.9234 -38.7807 277° West  Level FlightAware Approximate
Sun 09:00:00 AM 52.9357 -38.9641 276° West  Level FlightAware Approximate
Sun 09:01:00 AM 52.9478 -39.1475 276° West  Level FlightAware Approximate
Sun 09:02:00 AM 52.9595 -39.3310 276° West  Level FlightAware Approximate
Sun 09:03:00 AM 52.9710 -39.5147 276° West  Level FlightAware Approximate
Sun 09:04:00 AM 52.9822 -39.6984 276° West  Level FlightAware Approximate
Sun 09:05:00 AM 52.9931 -39.8822 276° West  Level FlightAware Approximate
Sun 09:06:00 AM 52.9962 -40.0658 264° West  Level FlightAware Approximate
Sun 09:07:00 AM 52.9852 -40.2492 264° West  Level FlightAware Approximate
Sun 09:08:00 AM 52.9740 -40.4326 264° West  Level FlightAware Approximate
Sun 09:09:00 AM 52.9625 -40.6159 264° West  Level FlightAware Approximate
Sun 09:10:00 AM 52.9508 -40.7991 264° West  Level FlightAware Approximate
Sun 09:11:00 AM 52.9387 -40.9822 264° West  Level FlightAware Approximate
Sun 09:12:00 AM 52.9264 -41.1652 264° West  Level FlightAware Approximate
Sun 09:13:00 AM 52.9138 -41.3481 264° West  Level FlightAware Approximate
Sun 09:14:00 AM 52.9009 -41.5308 263° West  Level FlightAware Approximate
Sun 09:15:00 AM 52.8877 -41.7135 263° West  Level FlightAware Approximate
Sun 09:16:00 AM 52.8743 -41.8960 263° West  Level FlightAware Approximate
Sun 09:17:00 AM 52.8605 -42.0785 263° West  Level FlightAware Approximate
Sun 09:18:00 AM 52.8465 -42.2608 263° West  Level FlightAware Approximate
Sun 09:19:00 AM 52.8322 -42.4430 263° West  Level FlightAware Approximate
Sun 09:20:00 AM 52.8177 -42.6251 263° West  Level FlightAware Approximate
Sun 09:21:00 AM 52.8028 -42.8070 262° West  Level FlightAware Approximate
Sun 09:22:00 AM 52.7877 -42.9889 262° West  Level FlightAware Approximate
Sun 09:23:00 AM 52.7723 -43.1706 262° West  Level FlightAware Approximate
Sun 09:24:00 AM 52.7566 -43.3521 262° West  Level FlightAware Approximate
Sun 09:25:00 AM 52.7406 -43.5336 262° West  Level FlightAware Approximate
Sun 09:26:00 AM 52.7244 -43.7149 262° West  Level FlightAware Approximate
Sun 09:27:00 AM 52.7082 -43.8961 262° West  Level FlightAware Approximate
Sun 09:28:00 AM 52.6920 -44.0773 262° West  Level FlightAware Approximate
Sun 09:29:00 AM 52.6755 -44.2584 262° West  Level FlightAware Approximate
Sun 09:30:00 AM 52.6587 -44.4393 261° West  Level FlightAware Approximate
Sun 09:31:00 AM 52.6417 -44.6200 261° West  Level FlightAware Approximate
Sun 09:32:00 AM 52.6244 -44.8007 261° West  Level FlightAware Approximate
Sun 09:33:00 AM 52.6068 -44.9811 261° West  Level FlightAware Approximate
Sun 09:34:00 AM 52.5889 -45.1615 261° West  Level FlightAware Approximate
Sun 09:35:00 AM 52.5708 -45.3417 261° West  Level FlightAware Approximate
Sun 09:36:00 AM 52.5524 -45.5217 261° West  Level FlightAware Approximate
Sun 09:37:00 AM 52.5337 -45.7016 260° West  Level FlightAware Approximate
Sun 09:38:00 AM 52.5147 -45.8813 260° West  Level FlightAware Approximate
Sun 09:39:00 AM 52.4955 -46.0609 260° West  Level FlightAware Approximate
Sun 09:40:00 AM 52.4760 -46.2403 260° West  Level FlightAware Approximate
Sun 09:41:00 AM 52.4562 -46.4196 260° West  Level FlightAware Approximate
Sun 09:42:00 AM 52.4362 -46.5987 260° West  Level FlightAware Approximate
Sun 09:43:00 AM 52.4159 -46.7776 260° West  Level FlightAware Approximate
Sun 09:44:00 AM 52.3953 -46.9563 259° West  Level FlightAware Approximate
Sun 09:45:00 AM 52.3744 -47.1349 259° West  Level FlightAware Approximate
Sun 09:46:00 AM 52.3533 -47.3134 259° West  Level FlightAware Approximate
Sun 09:47:00 AM 52.3319 -47.4916 259° West  Level FlightAware Approximate
Sun 09:48:00 AM 52.3103 -47.6697 259° West  Level FlightAware Approximate
Sun 09:49:00 AM 52.2883 -47.8476 259° West  Level FlightAware Approximate
Sun 09:50:00 AM 52.2662 -48.0253 259° West  Level FlightAware Approximate
Sun 09:51:00 AM 52.2437 -48.2029 258° West  Level FlightAware Approximate
Sun 09:52:00 AM 52.2210 -48.3803 258° West  Level FlightAware Approximate
Sun 09:53:00 AM 52.1980 -48.5574 258° West  Level FlightAware Approximate
Sun 09:54:00 AM 52.1747 -48.7345 258° West  Level FlightAware Approximate
Sun 09:55:00 AM 52.1512 -48.9113 258° West  Level FlightAware Approximate
Sun 09:56:00 AM 52.1274 -49.0879 258° West  Level FlightAware Approximate
Sun 09:57:00 AM 52.1034 -49.2643 258° West  Level FlightAware Approximate
Sun 09:58:00 AM 52.0791 -49.4403 257° West  Level FlightAware Approximate
Sun 09:59:00 AM 52.0546 -49.6160 257° West  Level FlightAware Approximate
Sun 09:59:13 AM 51.9000 -50.4500 250° West 440 506 36,000  Level Gander Center
Sun 10:00:00 AM 52.0298 -49.7915 257° West  Level FlightAware Approximate
Sun 10:00:13 AM 51.8667 -50.6167 252° West 430 495 36,000  Level Gander Center
Sun 10:01:00 AM 52.0048 -49.9668 257° West  Level FlightAware Approximate
Sun 10:01:13 AM 51.8167 -50.8167 248° West 430 495 36,000  Level Gander Center
Sun 10:02:00 AM 51.9692 -50.1370 250° West  Level FlightAware Approximate
Sun 10:02:13 AM 51.7667 -51.0000 246° West 430 495 36,000  Level Gander Center
Sun 10:03:00 AM 51.9311 -50.3057 250° West  Level FlightAware Approximate
Sun 10:03:13 AM 51.7167 -51.1667 244° Southwest 440 506 36,000  Level Gander Center
Sun 10:04:00 AM 51.8927 -50.4741 250° West  Level FlightAware Approximate
Sun 10:04:13 AM 51.6500 -51.3500 240° Southwest 440 506 36,000  Level Gander Center
Sun 10:05:12 AM 51.6167 -51.5167 252° West 440 506 36,000  Level Gander Center
Sun 10:06:12 AM 51.5667 -51.7167 248° West 440 506 36,000  Level Gander Center
Sun 10:07:12 AM 51.5167 -51.8833 244° Southwest 440 506 36,000  Level Gander Center
Sun 10:08:12 AM 51.4667 -52.0667 246° West 440 506 36,000  Level Gander Center
Sun 10:09:12 AM 51.4167 -52.2333 244° Southwest 440 506 36,000  Level Gander Center
Sun 10:10:12 AM 51.3667 -52.4000 244° Southwest 430 495 36,000  Level Gander Center
Sun 10:11:12 AM 51.3167 -52.5667 244° Southwest 430 495 36,000  Level Gander Center
Sun 10:12:12 AM 51.2667 -52.7500 247° West 430 495 36,000  Level Gander Center
Sun 10:13:12 AM 51.2167 -52.9500 248° West 430 495 36,000  Level Gander Center
Sun 10:14:12 AM 51.1500 -53.1167 238° Southwest 430 495 36,000  Level Gander Center
Sun 10:15:12 AM 51.1167 -53.2833 252° West 430 495 36,000  Level Gander Center
Sun 10:16:13 AM 51.0667 -53.4500 245° Southwest 430 495 36,000  Level Gander Center
Sun 10:17:13 AM 51.0000 -53.6167 238° Southwest 430 495 36,000  Level Gander Center
Sun 10:18:13 AM 50.9500 -53.7833 245° Southwest 420 483 36,000  Level Gander Center
Sun 10:19:12 AM 50.9167 -53.9500 252° West 430 495 36,000  Level Gander Center
Sun 10:20:12 AM 50.8500 -54.1167 238° Southwest 430 495 36,000  Level Gander Center
Sun 10:21:12 AM 50.8000 -54.2833 245° Southwest 430 495 36,000  Level Gander Center
Sun 10:22:12 AM 50.7333 -54.4667 240° Southwest 420 483 36,000  Level Gander Center
Sun 10:23:12 AM 50.7000 -54.6167 251° West 420 483 36,000  Level Gander Center
Sun 10:24:12 AM 50.6333 -54.7833 238° Southwest 430 495 36,000  Level Gander Center
Sun 10:25:12 AM 50.5833 -54.9500 245° Southwest 430 495 36,000  Level Gander Center
Sun 10:26:12 AM 50.5167 -55.1167 238° Southwest 420 483 36,000  Level Gander Center
Sun 10:27:12 AM 50.4833 -55.2833 253° West 420 483 36,000  Level Gander Center
Sun 10:28:12 AM 50.4167 -55.4500 238° Southwest 430 495 36,000  Level Gander Center
Sun 10:29:12 AM 50.3667 -55.6500 249° West 430 495 36,000  Level Gander Center
Sun 10:30:12 AM 50.3167 -55.7833 240° Southwest 440 506 36,000  Level Gander Center
Sun 10:31:12 AM 50.2667 -55.9667 247° West 440 506 36,000  Level Gander Center
Sun 10:32:12 AM 50.2000 -56.1333 238° Southwest 440 506 36,000  Level Gander Center
Sun 10:33:12 AM 50.1500 -56.3000 245° Southwest 440 506 36,000  Level Gander Center
Sun 10:34:12 AM 50.0833 -56.4833 241° Southwest 440 506 36,000  Level Gander Center
Sun 10:35:12 AM 50.0500 -56.6500 253° West 440 506 36,000  Level Gander Center
Sun 10:36:12 AM 49.9833 -56.8000 235° Southwest 440 506 36,000  Level Gander Center
Sun 10:37:12 AM 49.9167 -56.9667 238° Southwest 440 506 36,000  Level Gander Center
Sun 10:38:12 AM 49.8667 -57.1333 245° Southwest 440 506 36,000  Level Gander Center
Sun 10:39:12 AM 49.8000 -57.3167 241° Southwest 440 506 36,000  Level Gander Center
Sun 10:40:12 AM 49.7333 -57.4833 238° Southwest 440 506 36,000  Level Gander Center
Sun 10:41:12 AM 49.6833 -57.6333 243° Southwest 440 506 36,000  Level Gander Center
Sun 10:42:12 AM 49.6167 -57.8167 241° Southwest 440 506 36,000  Level Gander Center
Sun 10:43:12 AM 49.5667 -57.9833 245° Southwest 440 506 36,000  Level Gander Center
Sun 10:44:12 AM 49.5000 -58.1333 236° Southwest 440 506 36,000  Level Gander Center
Sun 10:45:12 AM 49.4500 -58.3000 245° Southwest 440 506 36,000  Level Gander Center
Sun 10:46:12 AM 49.3833 -58.4833 241° Southwest 440 506 36,000  Level Gander Center
Sun 10:47:12 AM 49.3167 -58.6333 236° Southwest 440 506 36,000  Level Gander Center
Sun 10:48:13 AM 49.2500 -58.8000 239° Southwest 440 506 36,000  Level Gander Center
Sun 10:49:13 AM 49.2000 -58.9833 247° West 450 518 36,000  Level Gander Center
Sun 10:50:13 AM 49.1333 -59.1333 236° Southwest 450 518 36,000  Level Gander Center
Sun 10:51:13 AM 49.0667 -59.3000 239° Southwest 440 506 36,000  Level Gander Center
Sun 10:52:13 AM 49.0167 -59.4667 245° Southwest 440 506 36,000  Level Gander Center
Sun 10:53:13 AM 48.9500 -59.6333 239° Southwest 450 518 36,000  Level Gander Center
Sun 10:54:13 AM 48.8833 -59.7833 236° Southwest 440 506 36,000  Level Gander Center
Sun 10:55:13 AM 48.8167 -59.9667 241° Southwest 440 506 36,000  Level Gander Center
Sun 10:56:13 AM 48.7667 -60.1167 243° Southwest 440 506 36,000  Level Gander Center
Sun 10:57:13 AM 48.7000 -60.2667 236° Southwest 440 506 36,000  Level Gander Center
Sun 10:58:13 AM 48.6333 -60.4167 236° Southwest 440 506 36,000  Level Gander Center
Sun 10:59:13 AM 48.5833 -60.6000 248° West 440 506 36,000  Level Gander Center
Sun 11:00:13 AM 48.5167 -60.7500 236° Southwest 450 518 36,000  Level Gander Center
Sun 11:01:13 AM 48.4500 -60.9000 236° Southwest 450 518 36,000  Level Gander Center
Sun 11:02:13 AM 48.3833 -61.0833 241° Southwest 440 506 36,000  Level Gander Center
Sun 11:03:13 AM 48.3167 -61.2333 236° Southwest 450 518 36,000  Level Gander Center
Sun 11:04:13 AM 48.2500 -61.3833 236° Southwest 440 506 36,000  Level Gander Center
Sun 11:05:13 AM 48.1833 -61.5500 239° Southwest 450 518 36,000  Level Gander Center
Sun 11:06:13 AM 48.1167 -61.7000 236° Southwest 450 518 36,000  Level Gander Center
Sun 11:07:13 AM 48.0500 -61.8833 242° Southwest 450 518 36,000  Level Gander Center
Sun 11:08:13 AM 48.0000 -62.0333 244° Southwest 440 506 36,000  Level Gander Center
Sun 11:09:13 AM 47.9333 -62.1833 236° Southwest 450 518 36,000  Level Gander Center
Sun 11:10:13 AM 47.8667 -62.3333 237° Southwest 440 506 36,000  Level Gander Center
Sun 11:11:15 AM 47.7833 -62.5000 233° Southwest 440 506 36,000  Level Moncton Center
Sun 11:12:15 AM 47.7167 -62.6500 237° Southwest 440 506 36,000  Level Moncton Center
Sun 11:13:15 AM 47.6500 -62.8000 237° Southwest 450 518 36,000  Level Moncton Center
Sun 11:14:15 AM 47.5833 -62.9500 237° Southwest 450 518 36,000  Level Moncton Center
Sun 11:15:15 AM 47.5333 -63.1000 244° Southwest 440 506 36,000  Level Moncton Center
Sun 11:16:15 AM 47.4667 -63.2500 237° Southwest 440 506 36,000  Level Moncton Center
Sun 11:17:15 AM 47.3833 -63.4333 236° Southwest 440 506 36,000  Level Moncton Center
Sun 11:18:13 AM 47.3167 -63.5667 234° Southwest 450 518 36,000  Level Gander Center
Sun 11:19:13 AM 47.2500 -63.7167 237° Southwest 450 518 36,000  Level Gander Center
Sun 11:20:13 AM 47.1833 -63.8833 240° Southwest 450 518 36,000  Level Gander Center
Sun 11:21:13 AM 47.1167 -64.0333 237° Southwest 440 506 36,000  Level Gander Center
Sun 11:22:13 AM 47.0333 -64.1667 228° Southwest 440 506 36,000  Level Gander Center
Sun 11:23:13 AM 46.9667 -64.3333 240° Southwest 440 506 36,000  Level Gander Center
Sun 11:24:13 AM 46.9167 -64.4833 244° Southwest 440 506 36,000  Level Gander Center
Sun 11:25:13 AM 46.8500 -64.6333 237° Southwest 440 506 36,000  Level Gander Center
Sun 11:26:13 AM 46.7667 -64.7667 228° Southwest 440 506 36,000  Level Gander Center
Sun 11:27:13 AM 46.7000 -64.9333 240° Southwest 440 506 36,000  Level Gander Center
Sun 11:28:13 AM 46.6333 -65.0667 234° Southwest 450 518 36,000  Level Gander Center
Sun 11:29:15 AM 46.5667 -65.2167 237° Southwest 440 506 36,000  Level Moncton Center
Sun 11:34:48 AM 46.1880 -66.0490 237° Southwest 444 511 36,000  Level FlightAware ADS-B
Sun 11:35:33 AM 46.1340 -66.1590 235° Southwest 443 510 36,000  Level FlightAware ADS-B
Sun 11:36:18 AM 46.0810 -66.2680 235° Southwest 444 511 36,000  Level FlightAware ADS-B
Sun 11:36:53 AM 46.0390 -66.3540 235° Southwest 444 511 36,000  Level FlightAware ADS-B
Sun 11:37:38 AM 45.9860 -66.4600 234° Southwest 444 511 36,000  Level FlightAware ADS-B
Sun 11:38:23 AM 45.9330 -66.5680 235° Southwest 442 509 36,000  Level FlightAware ADS-B
Sun 11:38:58 AM 45.8920 -66.6500 234° Southwest 440 506 36,000  Level FlightAware ADS-B
Sun 11:39:33 AM 45.8490 -66.7360 234° Southwest 439 505 36,000  Level FlightAware ADS-B
Sun 11:40:03 AM 45.8150 -66.8050 235° Southwest 440 506 36,000  Level FlightAware ADS-B
Sun 11:40:53 AM 45.7540 -66.9270 234° Southwest 439 505 36,000  Level FlightAware ADS-B
Sun 11:41:38 AM 45.7030 -67.0280 234° Southwest 436 502 36,000  Level FlightAware ADS-B
Sun 11:42:13 AM 45.6590 -67.1140 234° Southwest 430 495 36,000  Level FlightAware ADS-B
Sun 11:42:48 AM 45.6190 -67.1930 234° Southwest 428 493 36,000  Level FlightAware ADS-B
Sun 11:44:03 AM 45.5290 -67.3710 234° Southwest 436 502 36,000  Level FlightAware ADS-B
Sun 11:46:33 AM 45.3520 -67.7160 234° Southwest 436 502 36,000  Level FlightAware ADS-B
Sun 11:47:48 AM 45.2510 -67.8790 229° Southwest 437 503 36,000  Level FlightAware ADS-B
Sun 11:48:53 AM 45.1640 -68.0170 228° Southwest 435 501 36,000  Level FlightAware ADS-B
Sun 11:50:03 AM 45.0670 -68.1680 228° Southwest 434 499 36,000  Level FlightAware ADS-B
Sun 11:51:23 AM 44.9610 -68.3320 228° Southwest 435 501 36,000  Level FlightAware ADS-B
Sun 11:51:58 AM 44.9140 -68.4050 228° Southwest 433 498 36,000  Level FlightAware ADS-B
Sun 11:52:38 AM 44.8590 -68.4900 228° Southwest 431 496 36,000  Level FlightAware ADS-B
Sun 11:53:18 AM 44.8040 -68.5750 228° Southwest 433 498 36,000  Level FlightAware ADS-B
Sun 11:54:03 AM 44.7450 -68.6650 227° Southwest 434 499 36,000  Level FlightAware ADS-B
Sun 11:54:38 AM 44.6960 -68.7400 227° Southwest 433 498 36,000  Level FlightAware ADS-B
Sun 11:55:18 AM 44.6410 -68.8240 227° Southwest 431 496 36,000  Level FlightAware ADS-B
Sun 11:56:08 AM 44.5750 -68.9240 227° Southwest 433 498 36,000  Level FlightAware ADS-B
Sun 11:56:58 AM 44.5060 -69.0290 227° Southwest 433 498 36,000  Level FlightAware ADS-B
Sun 11:57:28 AM 44.4650 -69.0900 227° Southwest 433 498 36,000  Level FlightAware ADS-B
Sun 11:58:03 AM 44.4220 -69.1550 227° Southwest 430 495 36,000  Level FlightAware ADS-B
Sun 11:58:43 AM 44.3640 -69.2420 227° Southwest 431 496 36,000  Level FlightAware ADS-B
Sun 11:59:18 AM 44.3150 -69.3150 227° Southwest 431 496 36,000  Level FlightAware ADS-B
Sun 11:59:53 AM 44.2680 -69.3850 227° Southwest 430 495 36,000  Level FlightAware ADS-B
Sun 12:00:28 PM 44.2200 -69.4570 227° Southwest 429 494 36,000  Level FlightAware ADS-B
Sun 12:00:58 PM 44.1780 -69.5190 227° Southwest 428 493 36,000  Level FlightAware ADS-B
Sun 12:01:43 PM 44.1200 -69.6050 227° Southwest 428 493 36,000  Level FlightAware ADS-B
Sun 12:02:13 PM 44.0810 -69.6630 227° Southwest 428 493 36,000  Level FlightAware ADS-B
Sun 12:02:48 PM 44.0310 -69.7370 227° Southwest 426 490 36,000  Level FlightAware ADS-B
Sun 12:03:23 PM 43.9860 -69.8020 226° Southwest 425 489 36,000  Level FlightAware ADS-B
Sun 12:03:58 PM 43.9350 -69.8770 227° Southwest 425 489 36,000  Level FlightAware ADS-B
Sun 12:04:43 PM 43.8760 -69.9640 227° Southwest 427 491 36,000  Level FlightAware ADS-B
Sun 12:05:28 PM 43.8160 -70.0520 227° Southwest 430 495 36,000  Level FlightAware ADS-B
Sun 12:06:03 PM 43.7680 -70.1210 226° Southwest 427 491 36,000  Level FlightAware ADS-B
Sun 12:06:38 PM 43.7170 -70.1940 226° Southwest 425 489 36,000  Level FlightAware ADS-B
Sun 12:07:23 PM 43.6580 -70.2810 227° Southwest 426 490 36,000  Level FlightAware ADS-B
Sun 12:07:53 PM 43.6170 -70.3400 226° Southwest 427 491 36,000  Level FlightAware ADS-B
Sun 12:08:28 PM 43.5590 -70.4000 217° Southwest 452 520 36,000  Level FlightAware ADS-B
Sun 12:08:58 PM 43.4940 -70.4170 191° South 479 551 36,000  Level FlightAware ADS-B
Sun 12:10:03 PM 43.3590 -70.3580 162° South 506 582 36,000  Level FlightAware ADS-B
Sun 12:10:33 PM 43.2900 -70.3250 161° South 492 566 36,000  Level FlightAware ADS-B
Sun 12:11:28 PM 43.1700 -70.3350 183° South 449 517 36,000  Level FlightAware ADS-B
Sun 12:11:58 PM 43.1150 -70.3740 207° Southwest 438 504 36,000  Level FlightAware ADS-B
Sun 12:12:48 PM 43.0280 -70.4410 209° Southwest 443 510 36,000  Level FlightAware ADS-B
Sun 12:13:28 PM 42.9570 -70.4970 210° Southwest 440 506 36,000  Level FlightAware ADS-B
Sun 12:14:13 PM 42.8770 -70.5580 209° Southwest 441 507 36,000  Level FlightAware ADS-B
Sun 12:14:48 PM 42.8140 -70.6070 210° Southwest 441 507 36,000  Level FlightAware ADS-B
Sun 12:15:18 PM 42.7600 -70.6490 210° Southwest 441 507 36,000  Level FlightAware ADS-B
Sun 12:16:03 PM 42.6830 -70.7080 209° Southwest 437 503 36,000  Level FlightAware ADS-B
Sun 12:16:48 PM 42.6010 -70.7700 209° Southwest 437 503 36,000  Level FlightAware ADS-B
Sun 12:17:23 PM 42.5410 -70.8160 209° Southwest 435 501 36,000  Level FlightAware ADS-B
Sun 12:18:03 PM 42.4710 -70.8700 210° Southwest 440 506 36,000  Level FlightAware ADS-B
Sun 12:18:43 PM 42.4040 -70.9200 209° Southwest 436 502 36,000  Level FlightAware ADS-B
Sun 12:19:13 PM 42.3500 -70.9620 210° Southwest 436 502 36,000 -277 Level FlightAware ADS-B
Sun 12:19:48 PM 42.2840 -71.0110 209° Southwest 439 505 35,700 -750 Descending FlightAware ADS-B
Sun 12:20:33 PM 42.2080 -71.0690 209° Southwest 446 513 35,000 -1,050 Descending FlightAware ADS-B
Sun 12:21:08 PM 42.1410 -71.1190 209° Southwest 440 506 34,300 -1,015 Descending FlightAware ADS-B
Sun 12:21:38 PM 42.0870 -71.1600 209° Southwest 436 502 33,900 -923 Descending FlightAware ADS-B
Sun 12:22:13 PM 42.0240 -71.1820 195° South 462 532 33,300 -943 Descending FlightAware ADS-B
Sun 12:22:48 PM 41.9550 -71.1920 186° South 464 534 32,800 -943 Descending FlightAware ADS-B
Sun 12:23:23 PM 41.8750 -71.2050 187° South 465 535 32,200 -982 Descending FlightAware ADS-B
Sun 12:23:43 PM 41.8350 -71.2110 186° South 464 534 31,900 -1,015 Descending FlightAware ADS-B
Sun 12:24:28 PM 41.7390 -71.2400 193° South 445 512 31,100 -1,000 Descending FlightAware ADS-B
Sun 12:24:43 PM 41.7130 -71.2660 217° Southwest 429 494 30,900 -960 Descending FlightAware ADS-B
Sun 12:25:18 PM 41.6790 -71.3340 236° Southwest 406 467 30,300 -1,040 Descending FlightAware ADS-B
Sun 12:25:58 PM 41.6540 -71.4340 252° West 401 461 29,600 -1,011 Descending FlightAware ADS-B
Sun 12:26:53 PM 41.6220 -71.5620 252° West 393 452 28,700 -1,000 Descending FlightAware ADS-B
Sun 12:27:28 PM 41.6020 -71.6420 252° West 389 448 28,100 -960 Descending FlightAware ADS-B
Sun 12:28:08 PM 41.5800 -71.7300 252° West 369 425 27,500 -975 Descending FlightAware ADS-B
Sun 12:28:48 PM 41.5590 -71.8080 250° West 345 397 26,800 -1,040 Descending FlightAware ADS-B
Sun 12:29:23 PM 41.5400 -71.8800 251° West 327 376 26,200 -943 Descending FlightAware ADS-B
Sun 12:29:58 PM 41.5240 -71.9400 250° West 310 357 25,700 -1,015 Descending FlightAware ADS-B
Sun 12:30:28 PM 41.5080 -71.9990 250° West 298 343 25,100 -1,067 Descending FlightAware ADS-B
Sun 12:30:43 PM 41.4980 -72.0220 240° Southwest 306 352 24,900 -900 Descending FlightAware ADS-B
Sun 12:31:08 PM 41.4660 -72.0510 214° Southwest 327 376 24,500 -1,050 Descending FlightAware ADS-B
Sun 12:31:23 PM 41.4450 -72.0590 196° South 347 399 24,200 -545 Descending FlightAware ADS-B
Sun 12:32:03 PM 41.3810 -72.0700 187° South 350 403 24,000 -160 Descending FlightAware ADS-B
Sun 12:32:38 PM 41.3220 -72.0800 187° South 350 403 24,000 -80 Level FlightAware ADS-B
Sun 12:33:18 PM 41.2620 -72.0940 190° South 339 390 23,900 -525 Descending FlightAware ADS-B
Sun 12:33:58 PM 41.2620 -72.0940 190° South 325 374 23,300 -424 Descending FlightAware ADS-B
Sun 12:34:43 PM 41.2060 -72.1290 205° Southwest 325 374 23,300 -1,067 Level FlightAware ADS-B
Sun 12:35:28 PM 41.0790 -72.2000 203° Southwest 317 365 21,700 -1,067 Descending FlightAware ADS-B
Sun 12:36:13 PM 41.0260 -72.2290 202° Southwest 317 365 21,700 -1,200 Level FlightAware ADS-B
Sun 12:36:33 PM 41.0160 -72.2690 252° West 262 302 20,400 -1,733 Descending FlightAware ADS-B
Sun 12:36:58 PM 41.0090 -72.3060 256° West 262 302 20,400  Level FlightAware ADS-B
Sun 12:37:48 PM 40.9970 -72.3730 257° West 262 302 20,400  Level FlightAware ADS-B
Sun 12:38:28 PM 40.9870 -72.4260 256° West 262 302 20,400  Level FlightAware ADS-B
Sun 12:38:58 PM 40.9790 -72.4650 255° West 262 302 20,400 -2,093 Level FlightAware ADS-B
Sun 12:39:23 PM 41.0180 -72.2550 76° East 17,600 -2,432 Descending FlightAware ADS-B
Sun 12:42:03 PM 40.9620 -72.7290 261° West 261 300 12,900 -1,446 Descending FlightAware ADS-B
Sun 12:42:38 PM 40.9410 -72.7730 238° Southwest 261 300 12,900 -943 Level FlightAware ADS-B
Sun 12:43:13 PM 40.9110 -72.8180 229° Southwest 269 310 11,800 -1,114 Descending FlightAware ADS-B
Sun 12:43:48 PM 40.8770 -72.8490 215° Southwest 273 314 11,600 -776 Descending FlightAware ADS-B
Sun 12:44:38 PM 40.8270 -72.8980 217° Southwest 264 304 10,700 -933 Descending FlightAware ADS-B
Sun 12:45:18 PM 40.7860 -72.9360 215° Southwest 264 304 10,200 -686 Descending FlightAware ADS-B
Sun 12:45:48 PM 40.7660 -72.9730 234° Southwest 239 275 9,900 -720 Descending FlightAware ADS-B
Sun 12:46:08 PM 40.7590 -73.0020 252° West 240 276 9,600 -764 Descending FlightAware ADS-B
Sun 12:46:43 PM 40.7460 -73.0520 251° West 240 276 9,200 -840 Descending FlightAware ADS-B
Sun 12:46:58 PM 40.7400 -73.0710 247° West 240 276 8,900 -1,400 Descending FlightAware ADS-B
Sun 12:47:13 PM 40.7350 -73.0910 252° West 243 280 8,500 -1,886 Descending FlightAware ADS-B
Sun 12:47:33 PM 40.7260 -73.1200 248° West 247 284 7,800 -1,636 Descending FlightAware ADS-B
Sun 12:48:08 PM 40.7130 -73.1720 252° West 247 284 7,000 -1,200 Descending FlightAware ADS-B
Sun 12:48:33 PM 40.7040 -73.2060 251° West 248 285 6,600 -1,029 Descending FlightAware ADS-B
Sun 12:48:43 PM 40.6970 -73.2170 230° Southwest 255 293 6,400 -1,200 Descending FlightAware ADS-B
Sun 12:49:13 PM 40.6680 -73.2490 220° Southwest 253 291 5,800 -1,091 Descending FlightAware ADS-B
Sun 12:49:38 PM 40.6470 -73.2740 222° Southwest 247 284 5,400 -1,200 Descending FlightAware ADS-B
Sun 12:49:53 PM 40.6340 -73.2890 221° Southwest 248 285 5,000 -1,500 Descending FlightAware ADS-B
Sun 12:50:18 PM 40.6140 -73.3150 225° Southwest 251 289 4,400 -1,350 Descending FlightAware ADS-B
Sun 12:50:33 PM 40.6040 -73.3270 222° Southwest 250 288 4,100 -1,371 Descending FlightAware ADS-B
Sun 12:50:53 PM 40.5840 -73.3520 224° Southwest 250 288 3,600 -1,733 Descending FlightAware ADS-B
Sun 12:51:18 PM 40.5630 -73.3780 223° Southwest 251 289 2,800 -1,745 Descending FlightAware ADS-B
Sun 12:51:48 PM 40.5410 -73.4110 229° Southwest 237 273 2,000 -1,200 Descending FlightAware ADS-B
Sun 12:52:03 PM 40.5380 -73.4330 260° West 232 267 1,900 -150 Descending FlightAware ADS-B
Sun 12:52:28 PM 40.5360 -73.4670 266° West 236 272 1,900  Level FlightAware ADS-B
Sun 12:52:48 PM 40.5340 -73.4920 264° West 219 252 1,900  Level FlightAware ADS-B
Sun 12:53:03 PM 40.5330 -73.5130 266° West 206 237 1,900  Level FlightAware ADS-B
Sun 12:53:23 PM 40.5310 -73.5360 263° West 200 230 1,900  Level FlightAware ADS-B
Sun 12:53:53 PM 40.5370 -73.5700 283° West 195 224 1,900  Level FlightAware ADS-B
Sun 12:54:18 PM 40.5490 -73.5980 299° West 195 224 1,900  Level FlightAware ADS-B
Sun 12:54:38 PM 40.5580 -73.6180 301° West 198 228 1,900  Level FlightAware ADS-B
Sun 12:54:58 PM 40.5670 -73.6380 301° West 193 222 1,900 -133 Level FlightAware ADS-B
Sun 12:55:23 PM 40.5790 -73.6650 300° West 187 215 1,800 -400 Descending FlightAware ADS-B
Sun 12:55:43 PM 40.5870 -73.6820 302° West 169 194 1,600 -533 Descending FlightAware ADS-B
Sun 12:56:08 PM 40.5960 -73.7020 301° West 141 162 1,400 -600 Descending FlightAware ADS-B
Sun 12:56:23 PM 40.6010 -73.7130 301° West 130 150 1,200 -840 Descending FlightAware ADS-B
Sun 12:56:58 PM 40.6120 -73.7370 301° West 128 147 700 -764 Descending FlightAware ADS-B
Sun 12:57:18 PM 40.6180 -73.7510 299° West 128 147 500 -686 Descending FlightAware ADS-B
Sun 12:57:33 PM 40.6230 -73.7610 303° West 127 146 300 -800 Descending FlightAware ADS-B
Sun 12:58:03 PM 40.6320 -73.7800 302° West 123 142 -600 Descending FlightAware ADS-B

Login

Don't have an account? Register now (free) for customized features, flight alerts, and more!